East Millbury, Massachusetts
Current Conditions -  °F | °C
As of 6:54 PM on Tuesday 25 Nov 2014 (Local Time) from KORH Reporting Station
Clear Clear  
Wind Chill: 40°   Ceiling: Unl
Heat Index: 44°   Visibility: 10mi
Dew Point: 25°   Wind: 8mph
Humidity: 47%   Direction: 260°W
Pressure: 30"   Gusts: NA
Location:  42.1926°N, 71.7739°W
Report Text: KORH 252354Z 26007KT 10SM CLR 07/M04 A3000 RMK AO2 SLP164 T00671039 10122 20067 51028
Loading
Personal Weather Stations






























Interactive Weather Map New forecast layout! Learn more

10-Day Weather Forecast

Advertisements
Track Severe Weather on mobile